Terminal Aerodrome Forecast
Issued by NWS Hastings, NE

Home | Current Version | Previous Version | Text Only | Print | Product List | Glossary On
Versions: 1 2 3 4 5 6 7 8 9 10 11 12 13 14 15 16 17 18 19 20 21 22 23 24
000
FTUS43 KGID 272331
TAFGRI
TAF
KGRI 272331Z 2800/2824 17010KT P6SM FEW120
     FM280800 16009KT P6SM SCT030 OVC050
     FM281200 17012KT P6SM SCT015 BKN025=

USA.gov is the U.S. government's official web portal to all federal, state and local government web resources and services.